Time,TemperatureF,DewpointF,PressureIn,WindDirection,WindDirectionDegrees,WindSpeedMPH,WindSpeedGustMPH,Humidity,HourlyPrecipIn,Conditions,Clouds,dailyrainin,SoftwareType,DateUTC
2013-06-09 00:05:00,62.5,61.0,30.06,WNW,283,1.0,3.0,96,0.00,,,0.00,weatherlink.com 1.10,2013-06-09 04:05:00,
2013-06-09 00:20:00,62.2,61.0,30.07,West,280,0.0,2.0,96,0.00,,,0.00,weatherlink.com 1.10,2013-06-09 04:20:00,
2013-06-09 00:35:00,61.9,61.0,30.07,West,271,0.0,1.0,97,0.00,,,0.00,weatherlink.com 1.10,2013-06-09 04:35:00,
2013-06-09 00:50:00,61.6,61.0,30.08,West,270,0.0,1.0,97,0.00,,,0.00,weatherlink.com 1.10,2013-06-09 04:50:00,
2013-06-09 01:05:00,61.4,61.0,30.08,WNW,291,2.0,2.0,97,0.00,,,0.00,weatherlink.com 1.10,2013-06-09 05:05:00,
2013-06-09 01:20:00,61.4,61.0,30.09,NW,304,3.0,4.0,97,0.00,,,0.00,weatherlink.com 1.10,2013-06-09 05:20:00,
2013-06-09 01:35:00,61.3,61.0,30.09,WNW,297,2.0,4.0,97,0.00,,,0.00,weatherlink.com 1.10,2013-06-09 05:35:00,
2013-06-09 01:50:00,61.6,60.0,30.09,West,278,2.0,4.0,95,0.00,,,0.00,weatherlink.com 1.10,2013-06-09 05:50:00,
2013-06-09 02:05:00,61.3,60.0,30.09,WNW,300,4.0,5.0,95,0.00,,,0.00,weatherlink.com 1.10,2013-06-09 06:05:00,
2013-06-09 02:20:00,60.9,59.0,30.09,WNW,296,4.0,5.0,94,0.00,,,0.00,weatherlink.com 1.10,2013-06-09 06:20:00,
2013-06-09 02:35:00,60.9,59.0,30.09,WNW,295,3.0,5.0,93,0.00,,,0.00,weatherlink.com 1.10,2013-06-09 06:35:00,
2013-06-09 02:50:00,60.7,58.0,30.09,WNW,301,3.0,5.0,92,0.00,,,0.00,weatherlink.com 1.10,2013-06-09 06:50:00,
2013-06-09 03:05:00,60.8,59.0,30.09,WNW,301,3.0,5.0,92,0.00,,,0.00,weatherlink.com 1.10,2013-06-09 07:05:00,
2013-06-09 03:20:00,60.8,58.0,30.10,NW,307,2.0,4.0,91,0.00,,,0.00,weatherlink.com 1.10,2013-06-09 07:20:00,
2013-06-09 03:35:00,60.3,58.0,30.10,NW,316,1.0,3.0,92,0.00,,,0.00,weatherlink.com 1.10,2013-06-09 07:35:00,
2013-06-09 03:50:00,60.3,58.0,30.10,NW,309,3.0,4.0,92,0.00,,,0.00,weatherlink.com 1.10,2013-06-09 07:50:00,
2013-06-09 04:05:00,60.3,58.0,30.11,WNW,290,1.0,4.0,91,0.00,,,0.00,weatherlink.com 1.10,2013-06-09 08:05:00,
2013-06-09 04:20:00,59.8,58.0,30.11,WSW,252,1.0,1.0,93,0.00,,,0.00,weatherlink.com 1.10,2013-06-09 08:20:00,
2013-06-09 04:35:00,59.4,58.0,30.12,SW,221,1.0,2.0,94,0.00,,,0.00,weatherlink.com 1.10,2013-06-09 08:35:00,
2013-06-09 04:50:00,59.5,58.0,30.12,NW,319,1.0,2.0,93,0.00,,,0.00,weatherlink.com 1.10,2013-06-09 08:50:00,
2013-06-09 05:05:00,59.7,58.0,30.12,West,263,2.0,3.0,93,0.00,,,0.00,weatherlink.com 1.10,2013-06-09 09:05:00,
2013-06-09 05:20:00,59.8,58.0,30.13,WNW,296,1.0,4.0,93,0.00,,,0.00,weatherlink.com 1.10,2013-06-09 09:20:00,
2013-06-09 05:35:00,60.4,58.0,30.14,West,267,0.0,3.0,92,0.00,,,0.00,weatherlink.com 1.10,2013-06-09 09:35:00,
2013-06-09 05:50:00,60.1,58.0,30.15,West,281,1.0,3.0,92,0.00,,,0.00,weatherlink.com 1.10,2013-06-09 09:50:00,
2013-06-09 06:05:00,60.1,58.0,30.15,West,273,1.0,3.0,92,0.00,,,0.00,weatherlink.com 1.10,2013-06-09 10:05:00,
2013-06-09 06:20:00,60.5,58.0,30.16,WNW,292,2.0,4.0,92,0.00,,,0.00,weatherlink.com 1.10,2013-06-09 10:20:00,
2013-06-09 06:35:00,61.5,59.0,30.16,West,263,0.0,3.0,90,0.00,,,0.00,weatherlink.com 1.10,2013-06-09 10:35:00,
2013-06-09 06:50:00,62.5,59.0,30.16,WNW,288,4.0,6.0,88,0.00,,,0.00,weatherlink.com 1.10,2013-06-09 10:50:00,
2013-06-09 07:05:00,62.9,59.0,30.17,West,281,3.0,6.0,87,0.00,,,0.00,weatherlink.com 1.10,2013-06-09 11:05:00,
2013-06-09 07:21:00,64.0,60.0,30.17,NW,307,2.0,4.0,86,0.00,,,0.00,weatherlink.com 1.10,2013-06-09 11:21:00,
2013-06-09 07:36:00,64.4,60.0,30.17,WNW,285,2.0,8.0,84,0.00,,,0.00,weatherlink.com 1.10,2013-06-09 11:36:00,
2013-06-09 07:51:00,64.9,60.0,30.17,NW,312,4.0,10.0,83,0.00,,,0.00,weatherlink.com 1.10,2013-06-09 11:51:00,
2013-06-09 08:06:00,66.4,59.0,30.17,WNW,289,9.0,10.0,77,0.00,,,0.00,weatherlink.com 1.10,2013-06-09 12:06:00,
2013-06-09 08:21:00,67.8,58.0,30.17,WNW,302,7.0,11.0,72,0.00,,,0.00,weatherlink.com 1.10,2013-06-09 12:21:00,
2013-06-09 08:36:00,68.5,58.0,30.17,WNW,297,7.0,12.0,69,0.00,,,0.00,weatherlink.com 1.10,2013-06-09 12:36:00,
2013-06-09 09:21:00,64.2,59.0,30.18,WSW,238,5.0,10.0,84,0.00,,,0.00,weatherlink.com 1.10,2013-06-09 13:21:00,
2013-06-09 09:36:00,64.2,59.0,30.18,WSW,249,9.0,12.0,83,0.00,,,0.00,weatherlink.com 1.10,2013-06-09 13:36:00,
2013-06-09 09:51:00,64.6,59.0,30.18,West,266,7.0,12.0,83,0.00,,,0.00,weatherlink.com 1.10,2013-06-09 13:51:00,
2013-06-09 10:06:00,65.0,59.0,30.19,SW,217,5.0,12.0,81,0.00,,,0.00,weatherlink.com 1.10,2013-06-09 14:06:00,
2013-06-09 10:36:00,66.1,60.0,30.19,SW,222,9.0,13.0,80,0.00,,,0.00,weatherlink.com 1.10,2013-06-09 14:36:00,
2013-06-09 10:51:00,66.6,60.0,30.19,WSW,257,4.0,13.0,78,0.00,,,0.00,weatherlink.com 1.10,2013-06-09 14:51:00,
2013-06-09 11:06:00,67.4,60.0,30.19,SW,218,5.0,10.0,76,0.00,,,0.00,weatherlink.com 1.10,2013-06-09 15:06:00,
2013-06-09 11:21:00,68.2,60.0,30.19,South,191,5.0,10.0,75,0.00,,,0.00,weatherlink.com 1.10,2013-06-09 15:21:00,
2013-06-09 11:36:00,67.6,59.0,30.19,SSW,212,6.0,10.0,75,0.00,,,0.00,weatherlink.com 1.10,2013-06-09 15:36:00,
2013-06-09 11:51:00,67.2,60.0,30.19,SW,222,8.0,12.0,77,0.00,,,0.00,weatherlink.com 1.10,2013-06-09 15:51:00,
2013-06-09 12:06:00,66.4,59.0,30.19,SW,215,8.0,11.0,78,0.00,,,0.00,weatherlink.com 1.10,2013-06-09 16:06:00,
2013-06-09 12:21:00,67.1,59.0,30.18,SSW,207,10.0,15.0,76,0.00,,,0.00,weatherlink.com 1.10,2013-06-09 16:21:00,
2013-06-09 12:36:00,67.5,60.0,30.18,WSW,238,12.0,15.0,77,0.00,,,0.00,weatherlink.com 1.10,2013-06-09 16:36:00,
2013-06-09 12:51:00,68.8,59.0,30.17,SSW,212,10.0,16.0,71,0.00,,,0.00,weatherlink.com 1.10,2013-06-09 16:51:00,
2013-06-09 13:06:00,70.7,59.0,30.17,SW,231,4.0,14.0,67,0.00,,,0.00,weatherlink.com 1.10,2013-06-09 17:06:00,
2013-06-09 13:21:00,70.7,59.0,30.18,SW,231,7.0,13.0,67,0.00,,,0.00,weatherlink.com 1.10,2013-06-09 17:21:00,
2013-06-09 13:36:00,68.7,60.0,30.17,SSW,207,10.0,12.0,73,0.00,,,0.00,weatherlink.com 1.10,2013-06-09 17:36:00,
2013-06-09 13:51:00,67.5,60.0,30.17,WSW,239,6.0,12.0,77,0.00,,,0.00,weatherlink.com 1.10,2013-06-09 17:51:00,
2013-06-09 14:06:00,69.3,60.0,30.17,WSW,243,11.0,13.0,71,0.00,,,0.00,weatherlink.com 1.10,2013-06-09 18:06:00,
2013-06-09 14:21:00,69.6,61.0,30.17,WSW,239,10.0,13.0,73,0.00,,,0.00,weatherlink.com 1.10,2013-06-09 18:21:00,
2013-06-09 14:36:00,70.7,60.0,30.17,SW,231,10.0,13.0,69,0.00,,,0.00,weatherlink.com 1.10,2013-06-09 18:36:00,
2013-06-09 14:51:00,70.6,60.0,30.17,SSW,211,4.0,10.0,70,0.00,,,0.00,weatherlink.com 1.10,2013-06-09 18:51:00,
2013-06-09 15:06:00,69.3,61.0,30.17,SSW,207,7.0,10.0,74,0.00,,,0.00,weatherlink.com 1.10,2013-06-09 19:06:00,
2013-06-09 15:21:00,70.0,59.0,30.17,WSW,238,11.0,13.0,69,0.00,,,0.00,weatherlink.com 1.10,2013-06-09 19:21:00,
2013-06-09 15:37:00,69.0,60.0,30.18,SW,221,7.0,11.0,73,0.00,,,0.00,weatherlink.com 1.10,2013-06-09 19:37:00,
2013-06-09 15:51:00,69.0,60.0,30.17,SSW,201,6.0,8.0,72,0.00,,,0.00,weatherlink.com 1.10,2013-06-09 19:51:00,
2013-06-09 16:07:00,70.2,60.0,30.16,SSW,207,5.0,9.0,70,0.00,,,0.00,weatherlink.com 1.10,2013-06-09 20:07:00,
2013-06-09 16:21:00,70.4,61.0,30.16,SSW,203,6.0,9.0,71,0.00,,,0.00,weatherlink.com 1.10,2013-06-09 20:21:00,
2013-06-09 16:37:00,69.3,60.0,30.16,South,188,5.0,9.0,72,0.00,,,0.00,weatherlink.com 1.10,2013-06-09 20:37:00,
2013-06-09 16:52:00,68.9,61.0,30.16,SW,215,4.0,8.0,75,0.00,,,0.00,weatherlink.com 1.10,2013-06-09 20:52:00,
2013-06-09 17:07:00,68.7,61.0,30.16,SW,224,6.0,10.0,77,0.00,,,0.00,weatherlink.com 1.10,2013-06-09 21:07:00,
2013-06-09 17:22:00,69.8,61.0,30.16,SW,228,12.0,12.0,74,0.00,,,0.00,weatherlink.com 1.10,2013-06-09 21:22:00,
2013-06-09 17:37:00,70.2,61.0,30.16,SW,226,9.0,10.0,72,0.00,,,0.00,weatherlink.com 1.10,2013-06-09 21:37:00,
2013-06-09 17:52:00,69.2,61.0,30.16,SW,231,5.0,10.0,75,0.00,,,0.00,weatherlink.com 1.10,2013-06-09 21:52:00,
2013-06-09 18:07:00,68.8,61.0,30.16,SW,236,6.0,10.0,75,0.00,,,0.00,weatherlink.com 1.10,2013-06-09 22:07:00,
2013-06-09 18:22:00,67.7,60.0,30.16,WSW,240,7.0,9.0,77,0.00,,,0.00,weatherlink.com 1.10,2013-06-09 22:22:00,
2013-06-09 18:37:00,67.3,60.0,30.16,SW,215,5.0,9.0,77,0.00,,,0.00,weatherlink.com 1.10,2013-06-09 22:37:00,
2013-06-09 18:52:00,66.8,59.0,30.17,West,263,5.0,10.0,77,0.00,,,0.00,weatherlink.com 1.10,2013-06-09 22:52:00,
2013-06-09 19:07:00,66.6,60.0,30.18,WNW,284,5.0,8.0,78,0.00,,,0.00,weatherlink.com 1.10,2013-06-09 23:07:00,
2013-06-09 19:22:00,66.7,59.0,30.18,West,271,3.0,8.0,77,0.00,,,0.00,weatherlink.com 1.10,2013-06-09 23:22:00,
2013-06-09 19:37:00,65.6,59.0,30.18,West,277,5.0,6.0,80,0.00,,,0.00,weatherlink.com 1.10,2013-06-09 23:37:00,
2013-06-09 19:52:00,64.9,59.0,30.18,WSW,240,3.0,6.0,80,0.00,,,0.00,weatherlink.com 1.10,2013-06-09 23:52:00,
2013-06-09 20:07:00,64.9,59.0,30.18,SSW,193,3.0,6.0,81,0.00,,,0.00,weatherlink.com 1.10,2013-06-10 00:07:00,
2013-06-09 20:22:00,65.2,60.0,30.18,SW,214,1.0,4.0,82,0.00,,,0.00,weatherlink.com 1.10,2013-06-10 00:22:00,
2013-06-09 20:37:00,65.2,60.0,30.18,West,276,1.0,3.0,83,0.00,,,0.00,weatherlink.com 1.10,2013-06-10 00:37:00,
2013-06-09 20:52:00,64.9,60.0,30.18,West,276,0.0,1.0,84,0.00,,,0.00,weatherlink.com 1.10,2013-06-10 00:52:00,
2013-06-09 21:07:00,64.5,60.0,30.19,West,276,1.0,1.0,85,0.00,,,0.00,weatherlink.com 1.10,2013-06-10 01:07:00,
2013-06-09 21:22:00,63.9,60.0,30.20,West,275,0.0,0.0,87,0.00,,,0.00,weatherlink.com 1.10,2013-06-10 01:22:00,
2013-06-09 21:37:00,63.8,60.0,30.20,SSE,154,2.0,2.0,87,0.00,,,0.00,weatherlink.com 1.10,2013-06-10 01:37:00,
2013-06-09 21:52:00,63.4,60.0,30.21,SW,231,1.0,4.0,89,0.00,,,0.00,weatherlink.com 1.10,2013-06-10 01:52:00,
2013-06-09 22:07:00,64.0,60.0,30.21,West,262,4.0,4.0,87,0.00,,,0.00,weatherlink.com 1.10,2013-06-10 02:07:00,
2013-06-09 22:22:00,64.3,60.0,30.22,West,259,4.0,5.0,86,0.00,,,0.00,weatherlink.com 1.10,2013-06-10 02:22:00,
2013-06-09 22:37:00,65.0,60.0,30.22,WSW,257,3.0,5.0,84,0.00,,,0.00,weatherlink.com 1.10,2013-06-10 02:37:00,
2013-06-09 22:52:00,65.4,61.0,30.21,West,269,1.0,5.0,84,0.00,,,0.00,weatherlink.com 1.10,2013-06-10 02:52:00,
2013-06-09 23:07:00,64.8,60.0,30.22,WSW,250,0.0,2.0,85,0.00,,,0.00,weatherlink.com 1.10,2013-06-10 03:07:00,
2013-06-09 23:22:00,64.0,60.0,30.22,SW,218,0.0,1.0,87,0.00,,,0.00,weatherlink.com 1.10,2013-06-10 03:22:00,
2013-06-09 23:37:00,63.0,60.0,30.22,SW,218,0.0,0.0,89,0.00,,,0.00,weatherlink.com 1.10,2013-06-10 03:37:00,
2013-06-09 23:52:00,62.9,60.0,30.22,South,169,0.0,2.0,91,0.00,,,0.00,weatherlink.com 1.10,2013-06-10 03:52:00,